createdAt,value
2017-11-16T11:26:17.271Z,2716
2017-11-16T11:27:18.748Z,2944
2017-11-16T11:28:21.503Z,2316
2017-11-16T11:29:23.281Z,1968
2017-11-16T11:30:26.939Z,1940
2017-11-16T11:31:30.814Z,1996
2017-11-16T11:32:33.162Z,2000
2017-11-16T11:33:37.330Z,2172
2017-11-16T11:34:41.100Z,2248
2017-11-16T11:35:45.539Z,2524
2017-11-16T11:36:47.644Z,2404
2017-11-16T11:37:51.812Z,1984
2017-11-16T11:38:53.562Z,1840
2017-11-16T11:39:57.787Z,1872
2017-11-16T11:41:01.281Z,2080
2017-11-16T11:42:04.924Z,2000
2017-11-16T11:43:08.548Z,1560
2017-11-16T11:44:12.753Z,1508
2017-11-16T11:45:16.311Z,1384
2017-11-16T11:46:19.919Z,1032
2017-11-16T11:47:23.822Z,1044
2017-11-16T11:48:27.800Z,912
2017-11-16T11:49:31.684Z,892
2017-11-16T11:50:35.232Z,932
2017-11-16T11:51:38.672Z,980
2017-11-16T11:52:43.219Z,1472
2017-11-16T11:53:46.207Z,1632
2017-11-16T11:54:51.686Z,1560
2017-11-16T11:55:58.078Z,1440
2017-11-16T11:57:00.348Z,1412
2017-11-16T11:58:04.567Z,2000
2017-11-16T11:59:06.539Z,2628
2017-11-16T12:00:08.907Z,2904
2017-11-16T12:01:25.489Z,3200
2017-11-16T12:02:29.495Z,3332
2017-11-16T12:03:33.093Z,3396
2017-11-16T12:04:36.879Z,3476
2017-11-16T12:05:40.852Z,3564
2017-11-16T12:06:44.645Z,3568
2017-11-16T12:07:48.393Z,3536
2017-11-16T12:08:52.013Z,3460
2017-11-16T12:09:55.588Z,3408
2017-11-16T12:10:59.190Z,3348
2017-11-16T12:12:02.931Z,3340
2017-11-16T12:13:07.431Z,3344
2017-11-16T12:14:11.582Z,3148
2017-11-16T12:15:15.297Z,2944
2017-11-16T12:16:18.969Z,2968
2017-11-16T12:17:22.556Z,3052
2017-11-16T12:18:26.145Z,3032
2017-11-16T12:19:29.644Z,2948
2017-11-16T12:20:33.460Z,2764
2017-11-16T12:21:37.431Z,2392
2017-11-16T12:22:41.581Z,2216
2017-11-16T12:23:45.141Z,2352
2017-11-16T12:24:48.951Z,2340
2017-11-16T12:25:54.009Z,2192
2017-11-16T12:26:57.873Z,2032
2017-11-16T12:28:01.964Z,2100
2017-11-16T12:29:06.767Z,2452
2017-11-16T12:30:10.789Z,2444
2017-11-16T12:31:14.427Z,2652
2017-11-16T12:32:18.086Z,2496
2017-11-16T12:33:22.141Z,2492
2017-11-16T12:34:24.167Z,2508
2017-11-16T12:35:27.998Z,2280
2017-11-16T12:36:33.483Z,2004
2017-11-16T12:37:38.057Z,2236
2017-11-16T12:38:41.863Z,2528
2017-11-16T12:39:45.993Z,2520
2017-11-16T12:40:49.762Z,3012
2017-11-16T12:41:53.946Z,3252
2017-11-16T12:42:58.434Z,3240
2017-11-16T12:44:02.736Z,3036
2017-11-16T12:45:07.163Z,2900
2017-11-16T12:46:11.265Z,2608
2017-11-16T12:47:15.172Z,2484
2017-11-16T12:48:17.718Z,2444
2017-11-16T12:49:21.299Z,2416
2017-11-16T12:50:25.355Z,2272
2017-11-16T12:51:29.059Z,2052
2017-11-16T12:52:34.826Z,1964
2017-11-16T12:53:38.505Z,2048
2017-11-16T12:54:42.127Z,1760
2017-11-16T12:55:46.570Z,1512
2017-11-16T12:56:50.641Z,1640
2017-11-16T12:57:54.753Z,1736
2017-11-16T12:58:58.865Z,1452
2017-11-16T13:00:02.695Z,1236
2017-11-16T13:01:07.002Z,1164
2017-11-16T13:02:11.384Z,1292
2017-11-16T13:03:15.159Z,1296
2017-11-16T13:04:18.653Z,1128
2017-11-16T13:05:22.279Z,1160
2017-11-16T13:06:24.919Z,1336
2017-11-16T13:07:29.027Z,1560
2017-11-16T13:08:33.637Z,1680
2017-11-16T13:09:37.005Z,1596
2017-11-16T13:10:40.500Z,1572
2017-11-16T13:11:44.056Z,1600
2017-11-16T13:12:47.709Z,1668
2017-11-16T13:13:51.240Z,1700
2017-11-16T13:14:54.815Z,1728
2017-11-16T13:15:58.448Z,1712
2017-11-16T13:17:02.354Z,1720
2017-11-16T13:18:06.075Z,1684
2017-11-16T13:19:10.096Z,1748
2017-11-16T13:20:12.149Z,1556
2017-11-16T13:21:15.725Z,1820
2017-11-16T13:22:19.203Z,1812
2017-11-16T13:23:23.496Z,1724
2017-11-16T13:24:27.582Z,1336
2017-11-16T13:25:31.667Z,1260
2017-11-16T13:26:35.271Z,1196
2017-11-16T13:27:38.819Z,1204
2017-11-16T13:28:40.904Z,1280
2017-11-16T13:29:44.472Z,1320
2017-11-16T13:30:48.123Z,1268
2017-11-16T13:31:51.880Z,1260
2017-11-16T13:32:55.419Z,988
2017-11-16T13:33:59.291Z,688
2017-11-16T13:35:02.783Z,500
2017-11-16T13:36:06.310Z,484
